Time;durP1;ratioP1;P1;durP2;ratioP2;P2;SDS_P1;SDS_P2;PMS_P1;PMS_P2;Temp;Humidity;BMP_temperature;BMP_pressure;BME280_temperature;BME280_humidity;BME280_pressure;Samples;Min_cycle;Max_cycle;Signal;HPM_P1;HPM_P2
2021/08/13 00:00:33;;;;;;;10.63;9.60;;;27.90;52.60;;;;;;4986403;28;20199;-48
2021/08/13 00:02:59;;;;;;;11.40;10.30;;;27.80;52.80;;;;;;4979691;28;20199;-47
2021/08/13 00:05:24;;;;;;;10.67;9.73;;;27.70;52.80;;;;;;4980769;28;20714;-47
2021/08/13 00:07:50;;;;;;;10.60;9.70;;;27.80;52.80;;;;;;4984642;28;20255;-48
2021/08/13 00:10:15;;;;;;;10.40;9.40;;;27.80;52.80;;;;;;4985577;28;20202;-49
2021/08/13 00:12:41;;;;;;;11.53;9.17;;;27.80;52.60;;;;;;4986645;28;20705;-47
2021/08/13 00:15:08;;;;;;;13.20;10.20;;;27.80;52.60;;;;;;4989682;28;20201;-46
2021/08/13 00:17:34;;;;;;;10.77;8.83;;;27.80;52.50;;;;;;4985658;28;20273;-52
2021/08/13 00:19:59;;;;;;;9.70;8.90;;;27.80;52.40;;;;;;4985580;28;20867;-47
2021/08/13 00:22:25;;;;;;;10.17;9.10;;;27.80;52.30;;;;;;4985930;28;20211;-47
2021/08/13 00:24:51;;;;;;;8.87;7.97;;;27.80;52.50;;;;;;4987331;28;20191;-47
2021/08/13 00:27:17;;;;;;;8.20;7.50;;;27.80;53.00;;;;;;4983339;28;20497;-49
2021/08/13 00:29:43;;;;;;;10.10;8.57;;;27.50;52.80;;;;;;4978906;28;20191;-46
2021/08/13 00:32:08;;;;;;;8.67;7.87;;;27.40;53.00;;;;;;4983222;28;20505;-46
2021/08/13 00:34:34;;;;;;;9.90;8.97;;;27.30;53.20;;;;;;4985341;28;20214;-49
2021/08/13 00:37:00;;;;;;;10.30;9.30;;;27.40;53.30;;;;;;4986593;28;20646;-48
2021/08/13 00:39:25;;;;;;;9.80;8.20;;;27.50;53.20;;;;;;4981796;28;21841;-49
2021/08/13 00:41:52;;;;;;;9.20;8.30;;;27.40;53.20;;;;;;4987115;28;20198;-48
2021/08/13 00:44:17;;;;;;;10.00;8.30;;;27.20;53.40;;;;;;4984078;28;20198;-47
2021/08/13 00:46:43;;;;;;;9.20;8.37;;;27.20;53.60;;;;;;4989585;28;20449;-48
2021/08/13 00:49:09;;;;;;;9.13;7.97;;;27.30;53.40;;;;;;4988226;28;20202;-46
2021/08/13 00:51:35;;;;;;;10.00;9.00;;;27.40;53.20;;;;;;4984535;28;20230;-46
2021/08/13 00:54:01;;;;;;;10.13;9.00;;;27.40;53.00;;;;;;4983957;28;20254;-47
2021/08/13 00:56:26;;;;;;;9.60;8.67;;;27.50;53.10;;;;;;4980949;28;21477;-46
2021/08/13 00:58:52;;;;;;;8.90;8.10;;;27.50;53.10;;;;;;4986225;28;20606;-48
2021/08/13 01:01:19;;;;;;;9.60;8.70;;;27.50;53.00;;;;;;4985614;28;20246;-48
2021/08/13 01:03:45;;;;;;;11.40;8.57;;;27.60;53.00;;;;;;4982756;28;20191;-48
2021/08/13 01:06:18;;;;;;;9.53;8.50;;;27.60;52.90;;;;;;4989995;28;20847;-48
2021/08/13 01:08:44;;;;;;;9.90;8.90;;;27.60;53.00;;;;;;4986020;28;20442;-48
2021/08/13 01:11:10;;;;;;;10.20;9.03;;;27.60;53.00;;;;;;4982350;28;20521;-47
2021/08/13 01:13:54;;;;;;;12.37;8.87;;;27.70;53.00;;;;;;4985378;28;20893;-47
2021/08/13 01:16:21;;;;;;;8.80;7.90;;;27.40;53.70;;;;;;4985681;28;20226;-47
2021/08/13 01:18:55;;;;;;;10.20;8.80;;;27.30;53.80;;;;;;4980889;28;20944;-49
2021/08/13 01:21:54;;;;;;;8.90;8.00;;;27.40;53.60;;;;;;4985781;28;21676;-48
2021/08/13 01:24:23;;;;;;;10.17;9.17;;;27.30;54.20;;;;;;4986217;28;20505;-47
2021/08/13 01:27:04;;;;;;;10.00;8.23;;;27.20;54.20;;;;;;4988906;28;20493;-47
2021/08/13 01:29:45;;;;;;;9.43;8.43;;;27.30;53.90;;;;;;4986729;28;20446;-47
2021/08/13 01:32:15;;;;;;;9.50;8.60;;;27.30;53.80;;;;;;4985492;28;20584;-49
2021/08/13 01:34:52;;;;;;;10.30;9.30;;;27.40;53.80;;;;;;4989155;28;20822;-46
2021/08/13 01:37:20;;;;;;;13.83;9.03;;;27.40;53.70;;;;;;4992184;28;20588;-51
2021/08/13 01:39:51;;;;;;;8.73;7.80;;;27.40;53.80;;;;;;4984544;28;20973;-48
2021/08/13 01:42:17;;;;;;;9.53;8.73;;;27.40;53.80;;;;;;4986260;28;20875;-47
2021/08/13 01:44:43;;;;;;;9.80;8.87;;;27.30;53.70;;;;;;4985082;28;20535;-47
2021/08/13 01:47:10;;;;;;;9.27;8.47;;;27.30;53.90;;;;;;4983668;28;20434;-51
2021/08/13 01:49:36;;;;;;;10.60;9.50;;;27.30;54.00;;;;;;4988969;28;20838;-48
2021/08/13 01:52:03;;;;;;;10.10;8.37;;;27.30;54.00;;;;;;4989168;28;20528;-46
2021/08/13 01:54:31;;;;;;;10.30;8.67;;;27.30;54.10;;;;;;4992816;28;20450;-47
2021/08/13 01:56:57;;;;;;;10.90;9.50;;;27.30;54.20;;;;;;4989169;28;20486;-49
2021/08/13 01:59:23;;;;;;;9.27;8.37;;;27.30;54.10;;;;;;4992753;28;20546;-46
2021/08/13 02:01:49;;;;;;;9.83;8.97;;;27.30;54.30;;;;;;4986094;28;20451;-48
2021/08/13 02:04:20;;;;;;;10.10;9.20;;;27.20;54.30;;;;;;4984455;28;20448;-49
2021/08/13 02:06:48;;;;;;;11.07;10.07;;;27.10;54.50;;;;;;4983483;28;20497;-48
2021/08/13 02:09:15;;;;;;;10.97;9.80;;;27.10;54.60;;;;;;4990280;28;20532;-47
2021/08/13 02:11:42;;;;;;;10.83;9.83;;;27.10;54.70;;;;;;4986622;28;20501;-46
2021/08/13 02:14:08;;;;;;;10.50;9.50;;;27.10;54.70;;;;;;4985635;28;20581;-48
2021/08/13 02:16:35;;;;;;;10.13;9.23;;;27.10;54.90;;;;;;4986891;28;20540;-46
2021/08/13 02:19:09;;;;;;;11.97;9.20;;;26.90;55.20;;;;;;4986162;28;20650;-49
2021/08/13 02:21:37;;;;;;;9.87;8.87;;;26.80;55.70;;;;;;4987495;28;20580;-49
2021/08/13 02:24:03;;;;;;;10.40;9.40;;;26.30;56.80;;;;;;4991521;28;20445;-47
2021/08/13 02:26:29;;;;;;;9.30;8.40;;;26.30;57.00;;;;;;4986459;28;20452;-46
2021/08/13 02:28:54;;;;;;;9.17;8.27;;;26.40;56.60;;;;;;4991703;28;20450;-46
2021/08/13 02:31:20;;;;;;;9.80;8.80;;;26.60;56.10;;;;;;4990109;28;20227;-49
2021/08/13 02:33:46;;;;;;;9.10;8.20;;;26.70;55.70;;;;;;4989219;28;20250;-48
2021/08/13 02:36:15;;;;;;;9.10;8.27;;;26.80;55.70;;;;;;4984351;28;20203;-48
2021/08/13 02:38:58;;;;;;;10.33;9.30;;;26.80;55.30;;;;;;4992810;28;20956;-49
2021/08/13 02:41:26;;;;;;;9.77;8.93;;;27.00;55.10;;;;;;4988523;28;20452;-50
2021/08/13 02:43:57;;;;;;;10.20;9.23;;;27.00;54.90;;;;;;4988129;28;20438;-51
2021/08/13 02:46:27;;;;;;;9.83;8.93;;;27.10;54.80;;;;;;4986785;28;20947;-50
2021/08/13 02:48:54;;;;;;;10.67;8.93;;;27.10;54.90;;;;;;4984544;28;20603;-49
2021/08/13 02:51:25;;;;;;;10.37;9.37;;;27.10;54.70;;;;;;4987409;28;20489;-47
2021/08/13 02:53:53;;;;;;;9.10;8.30;;;27.00;54.90;;;;;;4983276;28;20445;-50
2021/08/13 02:56:19;;;;;;;10.73;9.40;;;27.00;55.00;;;;;;4980019;28;20442;-47
2021/08/13 02:59:06;;;;;;;9.40;8.50;;;27.00;55.20;;;;;;4983116;28;20471;-49
2021/08/13 03:01:34;;;;;;;10.50;9.40;;;27.00;55.00;;;;;;4982177;28;20455;-51
2021/08/13 03:04:04;;;;;;;10.17;9.17;;;26.90;55.30;;;;;;4983892;28;20500;-48
2021/08/13 03:06:36;;;;;;;9.90;9.00;;;26.80;55.30;;;;;;4986899;28;20450;-47
2021/08/13 03:09:02;;;;;;;10.63;9.50;;;26.70;56.10;;;;;;4983735;28;20511;-51
2021/08/13 03:11:30;;;;;;;9.83;9.00;;;26.70;55.90;;;;;;4982938;28;20516;-47
2021/08/13 03:13:57;;;;;;;9.87;8.97;;;26.70;55.80;;;;;;4987845;28;20476;-50
2021/08/13 03:16:22;;;;;;;10.40;9.33;;;26.80;55.60;;;;;;4981879;28;20451;-50
2021/08/13 03:18:49;;;;;;;9.97;8.97;;;26.80;55.60;;;;;;4974644;28;20449;-47
2021/08/13 03:21:15;;;;;;;9.80;8.90;;;26.80;55.50;;;;;;4980644;28;20282;-46
2021/08/13 03:23:41;;;;;;;10.20;9.20;;;26.80;55.60;;;;;;4987767;28;20558;-51
2021/08/13 03:26:08;;;;;;;10.10;9.20;;;26.70;56.00;;;;;;4981707;28;20453;-47
2021/08/13 03:28:34;;;;;;;11.20;8.73;;;26.50;56.60;;;;;;4984014;28;20441;-49
2021/08/13 03:31:00;;;;;;;10.10;9.20;;;26.40;57.00;;;;;;4984106;28;20524;-47
2021/08/13 03:33:26;;;;;;;9.87;8.97;;;26.40;56.70;;;;;;4989274;28;20434;-46
2021/08/13 03:35:52;;;;;;;10.30;9.23;;;26.50;56.50;;;;;;4986796;28;20561;-49
2021/08/13 03:38:17;;;;;;;9.93;8.97;;;26.60;56.30;;;;;;4989835;28;20529;-51
2021/08/13 03:40:43;;;;;;;10.20;9.30;;;26.70;56.10;;;;;;4985188;28;20194;-50
2021/08/13 03:43:08;;;;;;;9.40;8.60;;;26.70;56.10;;;;;;4979465;28;20583;-49
2021/08/13 03:45:35;;;;;;;13.53;9.13;;;26.80;56.10;;;;;;4973516;28;20206;-46
2021/08/13 03:48:00;;;;;;;9.27;8.37;;;26.80;55.90;;;;;;4984621;28;20223;-49
2021/08/13 03:50:26;;;;;;;10.27;9.20;;;26.80;55.60;;;;;;4988423;28;20539;-49
2021/08/13 03:52:52;;;;;;;8.40;7.60;;;26.90;55.50;;;;;;4982636;28;20686;-50
2021/08/13 03:55:17;;;;;;;10.50;9.40;;;27.00;55.30;;;;;;4989762;28;20201;-46
2021/08/13 03:57:43;;;;;;;10.40;9.40;;;27.10;55.20;;;;;;4983540;28;20191;-48
2021/08/13 04:00:11;;;;;;;10.00;9.10;;;27.10;55.10;;;;;;4988794;28;20202;-51
2021/08/13 04:02:37;;;;;;;9.90;9.03;;;27.20;55.00;;;;;;4983205;28;20429;-51
2021/08/13 04:05:03;;;;;;;10.60;9.10;;;27.20;55.00;;;;;;4986059;28;20441;-50
2021/08/13 04:07:29;;;;;;;10.60;9.53;;;27.20;54.90;;;;;;4989205;28;20213;-49
2021/08/13 04:09:55;;;;;;;8.70;8.00;;;27.20;54.90;;;;;;4981561;28;20683;-46
2021/08/13 04:12:20;;;;;;;10.60;9.50;;;27.20;54.90;;;;;;4978020;28;20249;-47
2021/08/13 04:14:46;;;;;;;9.57;8.67;;;27.20;55.00;;;;;;4986403;28;20199;-50
2021/08/13 04:17:12;;;;;;;9.90;8.87;;;27.20;55.10;;;;;;4980233;28;20195;-50
2021/08/13 04:19:37;;;;;;;10.33;9.37;;;27.20;55.10;;;;;;4990488;28;20190;-47
2021/08/13 04:22:05;;;;;;;10.40;9.50;;;27.20;55.00;;;;;;4990940;28;20300;-48
2021/08/13 04:24:33;;;;;;;10.60;9.70;;;27.20;55.00;;;;;;4989360;28;20277;-52
2021/08/13 04:27:02;;;;;;;9.60;8.70;;;27.20;55.00;;;;;;4991005;28;20841;-51
2021/08/13 04:29:28;;;;;;;10.17;9.20;;;27.20;55.00;;;;;;4992918;28;20458;-51
2021/08/13 04:31:53;;;;;;;10.97;8.70;;;27.00;55.50;;;;;;4992091;28;20485;-50
2021/08/13 04:34:19;;;;;;;9.80;8.80;;;27.00;55.50;;;;;;4983322;28;20190;-47
2021/08/13 04:36:44;;;;;;;9.73;8.73;;;27.00;55.50;;;;;;4986155;28;20342;-46
2021/08/13 04:39:10;;;;;;;10.63;9.53;;;27.00;55.50;;;;;;4988051;28;20198;-48
2021/08/13 04:41:37;;;;;;;9.77;8.93;;;27.10;55.90;;;;;;4989467;28;20674;-50
2021/08/13 04:44:03;;;;;;;9.17;8.27;;;27.00;55.60;;;;;;4990463;28;20548;-51
2021/08/13 04:46:29;;;;;;;9.90;9.10;;;27.10;55.40;;;;;;4991696;28;20445;-47
2021/08/13 04:48:54;;;;;;;11.00;8.90;;;27.10;55.30;;;;;;4988872;28;20441;-47
2021/08/13 04:51:20;;;;;;;9.70;8.70;;;27.10;55.40;;;;;;4987995;28;20214;-50
2021/08/13 04:53:45;;;;;;;9.57;8.70;;;27.10;55.30;;;;;;4991738;28;20199;-49
2021/08/13 04:56:11;;;;;;;9.23;8.30;;;27.10;55.20;;;;;;4990779;28;20568;-50
2021/08/13 04:58:37;;;;;;;9.97;9.00;;;27.20;55.10;;;;;;4991767;28;20191;-47
2021/08/13 05:01:02;;;;;;;9.03;8.23;;;27.20;55.00;;;;;;4992471;28;20206;-50
2021/08/13 05:03:28;;;;;;;9.80;8.90;;;27.20;55.10;;;;;;4984569;28;20273;-52
2021/08/13 05:05:53;;;;;;;10.30;9.23;;;27.20;54.90;;;;;;4985454;28;20194;-50
2021/08/13 05:08:19;;;;;;;9.87;9.07;;;27.20;54.80;;;;;;4987784;28;20195;-48
2021/08/13 05:10:45;;;;;;;10.83;9.83;;;27.20;54.70;;;;;;4989410;28;20203;-47
2021/08/13 05:13:10;;;;;;;8.97;8.07;;;27.20;54.70;;;;;;4986523;28;20230;-50
2021/08/13 05:15:36;;;;;;;11.13;10.03;;;27.20;54.80;;;;;;4981552;28;20693;-49
2021/08/13 05:18:04;;;;;;;10.20;9.00;;;27.20;54.80;;;;;;4991160;28;20195;-51
2021/08/13 05:20:29;;;;;;;10.57;9.13;;;27.20;54.80;;;;;;4987490;28;20201;-50
2021/08/13 05:22:55;;;;;;;10.03;9.13;;;26.80;55.80;;;;;;4989651;28;20491;-50
2021/08/13 05:25:21;;;;;;;9.67;8.43;;;26.70;56.20;;;;;;4989061;28;20198;-47
2021/08/13 05:27:46;;;;;;;14.70;9.33;;;26.70;56.10;;;;;;4990016;28;20194;-50
2021/08/13 05:30:14;;;;;;;10.63;9.40;;;26.40;57.00;;;;;;4990471;28;20205;-51
2021/08/13 05:32:40;;;;;;;9.97;8.90;;;26.30;57.10;;;;;;4985098;28;20662;-47
2021/08/13 05:35:08;;;;;;;10.93;8.03;;;26.30;57.30;;;;;;4989087;28;20438;-51
2021/08/13 05:37:34;;;;;;;13.00;9.80;;;26.20;57.30;;;;;;4986827;28;20633;-47
2021/08/13 05:40:00;;;;;;;11.77;10.57;;;25.80;58.00;;;;;;4989674;28;20445;-52
2021/08/13 05:42:25;;;;;;;11.70;9.17;;;25.70;59.20;;;;;;4985042;28;20434;-50
2021/08/13 05:44:51;;;;;;;11.30;10.10;;;25.90;58.50;;;;;;4989081;28;20270;-48
2021/08/13 05:47:18;;;;;;;10.70;9.60;;;26.10;58.10;;;;;;4986167;28;20233;-48
2021/08/13 05:49:44;;;;;;;11.47;10.30;;;26.20;57.60;;;;;;4982342;28;20203;-51
2021/08/13 05:52:10;;;;;;;11.53;10.43;;;26.40;57.60;;;;;;4991483;28;21291;-50
2021/08/13 05:54:35;;;;;;;10.60;9.43;;;26.50;57.50;;;;;;4991136;28;20202;-47
2021/08/13 05:57:01;;;;;;;12.00;10.00;;;26.50;57.30;;;;;;4991335;28;20205;-50
2021/08/13 05:59:27;;;;;;;10.30;9.30;;;26.70;57.20;;;;;;4991340;28;20241;-52
2021/08/13 06:01:52;;;;;;;9.90;8.87;;;26.70;57.10;;;;;;4990081;28;20216;-50
2021/08/13 06:04:18;;;;;;;11.10;9.40;;;26.80;56.70;;;;;;4992289;28;20301;-48
2021/08/13 06:06:44;;;;;;;11.33;10.30;;;26.90;56.70;;;;;;4986500;28;20183;-49
2021/08/13 06:09:10;;;;;;;10.93;9.93;;;26.90;56.90;;;;;;4983451;28;20659;-50
2021/08/13 06:11:36;;;;;;;10.20;9.30;;;27.00;57.00;;;;;;4981013;28;20252;-50
2021/08/13 06:14:01;;;;;;;10.60;9.50;;;27.00;57.10;;;;;;4986923;28;20941;-50
2021/08/13 06:16:27;;;;;;;9.93;9.13;;;27.00;57.00;;;;;;4986586;28;20190;-51
2021/08/13 06:18:52;;;;;;;10.80;9.70;;;27.00;57.00;;;;;;4992763;28;20206;-50
2021/08/13 06:21:18;;;;;;;10.60;9.60;;;27.00;57.20;;;;;;4990952;28;20207;-49
2021/08/13 06:23:43;;;;;;;14.67;10.87;;;27.00;57.30;;;;;;4989650;28;20195;-51
2021/08/13 06:26:10;;;;;;;12.23;10.53;;;27.10;57.40;;;;;;4987590;28;20685;-50
2021/08/13 06:28:36;;;;;;;10.90;9.80;;;27.20;57.50;;;;;;4986267;28;20217;-49
2021/08/13 06:31:02;;;;;;;11.17;10.10;;;27.20;57.40;;;;;;4992622;28;20477;-51
2021/08/13 06:33:28;;;;;;;10.17;9.20;;;27.20;57.20;;;;;;4990770;28;20461;-50
2021/08/13 06:35:53;;;;;;;11.80;8.80;;;27.20;57.00;;;;;;4985781;28;20195;-50
2021/08/13 06:38:19;;;;;;;11.33;9.97;;;27.20;57.20;;;;;;4984802;28;20454;-51
2021/08/13 06:40:45;;;;;;;11.13;10.03;;;27.30;57.20;;;;;;4984803;28;20195;-50
2021/08/13 06:43:10;;;;;;;11.10;9.20;;;27.30;57.40;;;;;;4984647;28;20202;-50
2021/08/13 06:45:36;;;;;;;11.03;9.97;;;27.40;57.20;;;;;;4987532;28;20194;-51
2021/08/13 06:48:02;;;;;;;11.07;10.07;;;27.40;57.10;;;;;;4986231;28;20257;-51
2021/08/13 06:50:27;;;;;;;10.80;9.70;;;27.50;57.00;;;;;;4987133;28;20554;-47
2021/08/13 06:52:53;;;;;;;11.57;10.37;;;27.60;56.60;;;;;;4983510;28;20257;-46
2021/08/13 06:55:19;;;;;;;10.30;9.47;;;27.60;56.50;;;;;;4990048;28;20205;-46
2021/08/13 06:57:44;;;;;;;10.77;9.77;;;27.70;56.60;;;;;;4984435;28;20282;-48
2021/08/13 07:00:12;;;;;;;10.97;9.73;;;27.80;56.40;;;;;;4983490;28;20485;-47
2021/08/13 07:02:38;;;;;;;10.57;9.57;;;27.90;56.20;;;;;;4972067;28;20191;-46
2021/08/13 07:05:04;;;;;;;11.40;9.30;;;28.00;56.10;;;;;;4979055;28;20431;-46
2021/08/13 07:07:35;;;;;;;11.13;9.93;;;28.10;56.10;;;;;;4984874;28;20557;-47
2021/08/13 07:10:05;;;;;;;10.60;9.60;;;28.20;55.70;;;;;;4990639;28;20441;-45
2021/08/13 07:12:31;;;;;;;10.90;9.47;;;28.30;55.30;;;;;;4990849;28;20512;-46
2021/08/13 07:14:57;;;;;;;11.03;10.03;;;28.40;55.70;;;;;;4992564;28;20450;-46
2021/08/13 07:17:23;;;;;;;10.80;9.80;;;28.40;55.60;;;;;;4987188;28;20193;-47
2021/08/13 07:19:48;;;;;;;10.93;9.93;;;28.40;55.60;;;;;;4988070;28;20442;-45
2021/08/13 07:22:14;;;;;;;11.63;10.53;;;28.60;55.10;;;;;;4984984;28;20210;-46
2021/08/13 07:24:39;;;;;;;10.37;9.40;;;28.70;54.80;;;;;;4976845;28;20741;-46
2021/08/13 07:27:05;;;;;;;11.07;9.97;;;28.80;54.50;;;;;;4981527;28;20228;-45
2021/08/13 07:29:31;;;;;;;10.50;9.60;;;28.80;54.20;;;;;;4986382;28;20291;-45
2021/08/13 07:31:56;;;;;;;11.30;10.20;;;28.90;54.20;;;;;;4973432;28;20671;-45
2021/08/13 07:34:22;;;;;;;10.20;9.30;;;29.00;54.10;;;;;;4975799;28;20199;-46
2021/08/13 07:36:48;;;;;;;10.43;9.40;;;29.00;54.20;;;;;;4990483;28;20198;-46
2021/08/13 07:39:13;;;;;;;11.60;10.50;;;29.00;54.50;;;;;;4988234;28;20443;-46
2021/08/13 07:41:39;;;;;;;11.33;10.00;;;29.00;54.10;;;;;;4976912;28;20195;-48
2021/08/13 07:44:05;;;;;;;12.00;10.73;;;29.10;53.90;;;;;;4987604;28;20199;-47
2021/08/13 07:46:30;;;;;;;11.30;10.17;;;29.20;53.80;;;;;;4978240;28;20198;-45
2021/08/13 07:48:56;;;;;;;10.50;9.43;;;29.30;53.90;;;;;;4991256;28;20657;-46
2021/08/13 07:51:22;;;;;;;10.83;9.60;;;29.30;53.90;;;;;;4990121;28;20223;-46
2021/08/13 07:53:47;;;;;;;13.20;9.70;;;29.30;54.40;;;;;;4981224;28;20842;-46
2021/08/13 07:56:13;;;;;;;13.33;10.43;;;29.40;53.90;;;;;;4989026;28;20273;-46
2021/08/13 07:58:38;;;;;;;14.67;11.40;;;29.50;53.40;;;;;;4988662;28;20194;-48
2021/08/13 08:01:04;;;;;;;11.57;10.30;;;29.60;52.30;;;;;;4977353;28;20576;-47
2021/08/13 08:03:29;;;;;;;11.80;10.27;;;29.60;52.20;;;;;;4988727;28;20574;-46
2021/08/13 08:05:55;;;;;;;11.63;10.30;;;29.70;52.30;;;;;;4988891;28;20201;-46
2021/08/13 08:08:21;;;;;;;11.80;10.13;;;29.80;51.00;;;;;;4980323;28;20277;-47
2021/08/13 08:10:47;;;;;;;11.10;9.27;;;29.90;51.00;;;;;;4989372;28;20265;-47
2021/08/13 08:13:17;;;;;;;11.20;10.10;;;30.00;51.20;;;;;;4979709;28;20286;-46
2021/08/13 08:15:45;;;;;;;10.60;9.60;;;30.00;51.50;;;;;;4981390;28;20442;-47
2021/08/13 08:18:11;;;;;;;10.57;9.50;;;30.10;50.30;;;;;;4989952;28;20446;-46
2021/08/13 08:20:36;;;;;;;11.63;10.53;;;30.20;50.70;;;;;;4991759;28;20484;-45
2021/08/13 08:23:02;;;;;;;10.13;8.90;;;30.30;51.20;;;;;;4985415;28;20749;-46
2021/08/13 08:25:29;;;;;;;9.70;8.90;;;30.40;50.00;;;;;;4979669;28;20191;-46
2021/08/13 08:27:55;;;;;;;11.23;10.03;;;30.40;50.00;;;;;;4984094;28;20458;-47
2021/08/13 08:30:21;;;;;;;10.77;9.70;;;30.60;50.00;;;;;;4985372;28;20442;-47
2021/08/13 08:32:46;;;;;;;11.10;10.10;;;30.70;50.30;;;;;;4990646;28;20496;-47
2021/08/13 08:35:12;;;;;;;10.83;9.77;;;30.90;50.40;;;;;;4989902;28;20223;-46
2021/08/13 08:37:56;;;;;;;11.00;9.90;;;31.10;50.30;;;;;;4986734;28;20207;-46
2021/08/13 08:40:30;;;;;;;10.80;9.80;;;31.20;49.70;;;;;;4978519;28;20277;-46
2021/08/13 08:42:57;;;;;;;12.93;9.70;;;31.30;49.30;;;;;;4990509;28;20461;-45
2021/08/13 08:45:26;;;;;;;12.00;10.90;;;31.40;49.20;;;;;;4989723;28;20473;-46
2021/08/13 08:47:53;;;;;;;10.00;9.00;;;31.50;48.80;;;;;;4983348;28;20881;-46
2021/08/13 08:50:21;;;;;;;10.63;9.63;;;31.60;47.80;;;;;;4982076;28;20508;-48
2021/08/13 08:52:48;;;;;;;10.70;9.63;;;31.60;47.90;;;;;;4985542;28;20493;-48
2021/08/13 08:55:14;;;;;;;10.30;9.40;;;31.60;48.50;;;;;;4990377;28;20450;-46
2021/08/13 08:57:42;;;;;;;10.53;9.53;;;31.60;48.70;;;;;;4977945;28;20446;-52
2021/08/13 09:00:08;;;;;;;9.73;8.93;;;31.80;49.20;;;;;;4987519;28;20526;-50
2021/08/13 09:02:34;;;;;;;9.83;9.03;;;31.80;48.80;;;;;;4983533;28;20529;-46
2021/08/13 09:05:00;;;;;;;9.47;8.30;;;32.00;48.20;;;;;;4988095;28;20521;-46
2021/08/13 09:07:27;;;;;;;13.40;9.10;;;32.00;48.40;;;;;;4993370;28;20483;-46
2021/08/13 09:09:53;;;;;;;10.03;9.13;;;32.20;46.90;;;;;;4984594;28;20443;-47
2021/08/13 09:12:20;;;;;;;13.33;9.40;;;32.30;46.80;;;;;;4987231;28;20573;-46
2021/08/13 09:14:46;;;;;;;10.00;9.00;;;32.40;46.80;;;;;;4988660;28;20952;-46
2021/08/13 09:17:11;;;;;;;10.43;9.40;;;32.50;47.80;;;;;;4984280;28;20484;-46
2021/08/13 09:19:46;;;;;;;11.30;10.27;;;32.60;48.00;;;;;;4982153;28;20226;-47
2021/08/13 09:22:17;;;;;;;9.90;9.00;;;32.60;48.00;;;;;;4991011;28;20285;-46
2021/08/13 09:24:45;;;;;;;10.43;9.40;;;32.80;46.30;;;;;;4987719;28;20472;-47
2021/08/13 09:27:45;;;;;;;10.30;8.53;;;32.90;45.60;;;;;;4987092;28;20488;-46
2021/08/13 09:30:17;;;;;;;9.57;8.67;;;33.00;45.40;;;;;;4982756;28;20465;-47
2021/08/13 09:32:55;;;;;;;9.77;8.87;;;32.90;45.00;;;;;;4990606;28;20544;-51
2021/08/13 09:35:32;;;;;;;10.27;9.00;;;32.90;45.30;;;;;;4988317;28;20460;-46
2021/08/13 09:37:59;;;;;;;9.37;8.67;;;33.10;45.70;;;;;;4991328;28;20940;-48
2021/08/13 09:40:24;;;;;;;8.33;7.53;;;33.20;44.80;;;;;;4981580;28;21175;-46
2021/08/13 09:42:50;;;;;;;9.53;8.57;;;33.30;45.30;;;;;;4978037;28;20537;-51
2021/08/13 09:45:16;;;;;;;9.70;8.80;;;33.40;45.90;;;;;;4989438;28;20198;-50
2021/08/13 09:47:48;;;;;;;9.43;8.10;;;33.60;44.80;;;;;;4985068;28;20252;-49
2021/08/13 09:50:18;;;;;;;10.87;9.87;;;33.80;43.40;;;;;;4983527;28;20573;-48
2021/08/13 09:53:05;;;;;;;8.83;8.03;;;33.90;43.60;;;;;;4991913;28;20535;-49
2021/08/13 09:55:30;;;;;;;9.47;8.50;;;34.10;42.00;;;;;;4990449;28;20648;-48
2021/08/13 09:57:56;;;;;;;9.60;8.67;;;34.00;41.80;;;;;;4989489;28;20584;-48
2021/08/13 10:00:21;;;;;;;9.37;8.43;;;34.10;42.10;;;;;;4988270;28;20293;-46
2021/08/13 10:02:47;;;;;;;8.93;8.03;;;34.40;41.40;;;;;;4986615;28;20346;-47
2021/08/13 10:05:23;;;;;;;7.80;7.00;;;34.70;41.60;;;;;;4986813;28;20681;-50
2021/08/13 10:07:49;;;;;;;9.00;7.57;;;34.90;41.40;;;;;;4988751;28;20682;-46
2021/08/13 10:10:15;;;;;;;11.83;8.30;;;35.00;40.80;;;;;;4986930;28;20489;-47
2021/08/13 10:12:43;;;;;;;9.97;8.00;;;35.10;42.90;;;;;;4985225;28;20341;-48
2021/08/13 10:15:09;;;;;;;9.23;7.93;;;35.20;41.90;;;;;;4988921;28;20462;-46
2021/08/13 10:17:35;;;;;;;11.17;7.73;;;35.40;41.20;;;;;;4987230;28;20450;-51
2021/08/13 10:20:00;;;;;;;8.90;8.10;;;35.50;41.20;;;;;;4987830;28;20434;-47
2021/08/13 10:22:26;;;;;;;8.60;7.80;;;35.50;40.20;;;;;;4989415;28;20190;-47
2021/08/13 10:24:52;;;;;;;9.43;8.40;;;35.60;39.70;;;;;;4993610;28;20198;-48
2021/08/13 10:27:21;;;;;;;9.30;7.90;;;35.60;40.70;;;;;;4991442;28;20190;-50
2021/08/13 10:29:47;;;;;;;8.47;7.73;;;35.80;40.10;;;;;;4984034;28;20222;-47
2021/08/13 10:32:19;;;;;;;10.57;8.13;;;35.90;39.50;;;;;;4985879;28;20584;-47
2021/08/13 10:34:44;;;;;;;7.50;6.70;;;36.00;39.80;;;;;;4983790;28;20449;-48
2021/08/13 10:37:12;;;;;;;8.30;7.57;;;36.10;39.70;;;;;;4988372;28;21227;-50
2021/08/13 10:39:41;;;;;;;10.73;8.20;;;36.20;39.50;;;;;;4975287;28;20217;-47
2021/08/13 10:42:08;;;;;;;8.43;7.30;;;36.30;39.50;;;;;;4991132;28;20449;-48
2021/08/13 10:44:42;;;;;;;8.17;7.40;;;36.30;39.70;;;;;;4982287;28;20433;-48
2021/08/13 10:47:12;;;;;;;10.00;7.80;;;36.30;40.50;;;;;;4991857;28;20512;-49
2021/08/13 10:49:39;;;;;;;7.70;7.03;;;36.40;39.50;;;;;;4988259;28;20516;-46
2021/08/13 10:52:07;;;;;;;8.70;8.00;;;36.50;39.40;;;;;;4982074;28;20485;-49
2021/08/13 10:54:41;;;;;;;9.73;6.97;;;36.60;39.80;;;;;;4989495;28;20446;-47
2021/08/13 10:57:10;;;;;;;9.27;7.83;;;36.70;40.10;;;;;;4989511;28;20454;-47
2021/08/13 10:59:53;;;;;;;8.13;7.33;;;36.80;38.70;;;;;;4988094;28;20520;-48
2021/08/13 11:02:19;;;;;;;8.20;7.50;;;36.90;38.20;;;;;;4985304;28;20446;-47
2021/08/13 11:04:47;;;;;;;9.20;8.30;;;37.10;38.60;;;;;;4979119;28;20798;-46
2021/08/13 11:07:13;;;;;;;10.60;8.10;;;37.10;37.70;;;;;;4987749;28;20449;-47
2021/08/13 11:09:40;;;;;;;9.40;8.20;;;37.30;38.50;;;;;;4988679;28;20452;-47
2021/08/13 11:12:06;;;;;;;9.00;8.13;;;37.40;37.40;;;;;;4983854;28;20552;-50
2021/08/13 11:14:46;;;;;;;9.07;8.20;;;37.50;37.90;;;;;;4992036;28;20441;-51
2021/08/13 11:17:48;;;;;;;8.27;7.53;;;37.50;37.90;;;;;;4985994;28;20208;-50
2021/08/13 11:20:15;;;;;;;8.73;7.97;;;37.70;37.70;;;;;;4988334;28;20904;-48
2021/08/13 11:22:42;;;;;;;8.57;7.77;;;37.90;37.50;;;;;;4982880;28;20574;-49
2021/08/13 11:25:12;;;;;;;9.00;8.20;;;38.00;37.20;;;;;;4988374;28;20444;-46
2021/08/13 11:27:38;;;;;;;9.03;8.30;;;38.20;35.80;;;;;;4989261;28;20471;-49
2021/08/13 11:30:05;;;;;;;10.37;8.33;;;38.30;35.90;;;;;;4987505;28;20925;-49
2021/08/13 11:32:33;;;;;;;7.60;7.00;;;38.30;36.20;;;;;;4980010;28;20234;-51
2021/08/13 11:35:08;;;;;;;10.63;7.90;;;38.40;35.50;;;;;;4985903;28;20449;-47
2021/08/13 11:37:46;;;;;;;8.43;7.63;;;38.60;35.50;;;;;;4988425;28;20463;-51
2021/08/13 11:40:14;;;;;;;12.40;7.63;;;38.60;35.10;;;;;;4989444;28;20484;-47
2021/08/13 11:42:51;;;;;;;9.13;8.33;;;38.70;35.80;;;;;;4986153;28;21288;-52
2021/08/13 11:45:17;;;;;;;11.70;9.83;;;38.60;35.20;;;;;;4982821;28;20453;-49
2021/08/13 11:47:47;;;;;;;13.43;11.70;;;38.60;36.00;;;;;;4981799;28;20453;-47
2021/08/13 11:50:13;;;;;;;8.77;8.00;;;38.70;35.80;;;;;;4984435;28;20453;-46
2021/08/13 11:52:45;;;;;;;9.17;8.37;;;38.80;35.00;;;;;;4980913;28;20504;-51
2021/08/13 11:55:25;;;;;;;9.77;8.17;;;38.90;35.10;;;;;;4981528;28;20445;-48
2021/08/13 11:57:53;;;;;;;9.73;8.33;;;38.90;35.30;;;;;;4981504;28;20459;-47
2021/08/13 12:00:20;;;;;;;11.27;8.70;;;39.00;36.00;;;;;;4982851;28;20437;-47
2021/08/13 12:02:47;;;;;;;12.63;8.23;;;39.00;35.10;;;;;;4978985;28;20464;-45
2021/08/13 12:05:13;;;;;;;10.83;8.60;;;39.10;36.50;;;;;;4985540;28;20429;-49
2021/08/13 12:07:40;;;;;;;10.70;9.13;;;39.10;35.40;;;;;;4987503;28;20433;-51
2021/08/13 12:10:16;;;;;;;8.97;8.17;;;39.10;35.60;;;;;;4989034;28;20511;-46
2021/08/13 12:12:43;;;;;;;8.90;7.80;;;39.20;36.30;;;;;;4985627;28;20993;-49
2021/08/13 12:15:10;;;;;;;10.07;9.07;;;39.10;35.40;;;;;;4988740;28;20483;-47
2021/08/13 12:17:36;;;;;;;9.70;8.80;;;39.20;35.20;;;;;;4989731;28;20504;-48
2021/08/13 12:20:06;;;;;;;9.17;8.57;;;39.20;35.80;;;;;;4984094;28;20483;-46
2021/08/13 12:22:39;;;;;;;9.10;8.30;;;39.20;35.70;;;;;;4981770;28;20453;-51
2021/08/13 12:25:08;;;;;;;10.20;9.33;;;39.30;35.20;;;;;;4984886;28;20438;-51
2021/08/13 12:27:36;;;;;;;10.20;9.03;;;39.30;35.60;;;;;;4972823;28;20524;-49
2021/08/13 12:30:23;;;;;;;10.10;9.07;;;39.40;34.90;;;;;;4990164;28;20949;-48
2021/08/13 12:32:51;;;;;;;9.97;9.17;;;39.60;34.80;;;;;;4988114;28;20567;-48
2021/08/13 12:35:16;;;;;;;9.93;9.03;;;39.80;35.20;;;;;;4988388;28;20522;-49
2021/08/13 12:37:42;;;;;;;9.20;8.40;;;39.90;35.10;;;;;;4986879;28;20597;-47
2021/08/13 12:40:11;;;;;;;9.80;8.80;;;39.90;35.30;;;;;;4985018;28;20242;-48
2021/08/13 12:42:44;;;;;;;9.33;7.93;;;39.90;34.70;;;;;;4989196;28;20440;-47